Time;durP1;ratioP1;P1;durP2;ratioP2;P2;SDS_P1;SDS_P2;PMS_P1;PMS_P2;Temp;Humidity;BMP_temperature;BMP_pressure;BME280_temperature;BME280_humidity;BME280_pressure;Samples;Min_cycle;Max_cycle;Signal;HPM_P1;HPM_P2
2021/04/07 00:01:15;;;;;;;3.83;2.40;;;3.70;61.30;;;;;;5041883;28;20462;-41
2021/04/07 00:03:42;;;;;;;4.23;2.83;;;3.70;61.20;;;;;;5045669;28;20467;-40
2021/04/07 00:06:08;;;;;;;3.43;2.20;;;3.70;61.10;;;;;;5039041;28;20557;-40
2021/04/07 00:08:34;;;;;;;5.33;3.00;;;3.70;61.70;;;;;;5028951;28;20752;-40
2021/04/07 00:11:01;;;;;;;4.33;3.07;;;3.70;61.40;;;;;;5045720;28;20616;-41
2021/04/07 00:13:27;;;;;;;6.10;2.27;;;3.70;61.70;;;;;;5042070;28;20457;-41
2021/04/07 00:15:53;;;;;;;6.90;2.87;;;3.70;61.80;;;;;;5043646;28;20439;-41
2021/04/07 00:18:20;;;;;;;4.07;2.67;;;3.70;61.40;;;;;;5044003;28;20838;-40
2021/04/07 00:20:46;;;;;;;4.13;3.40;;;3.70;61.70;;;;;;5055966;28;20458;-41
2021/04/07 00:23:12;;;;;;;5.43;3.30;;;3.70;61.70;;;;;;5050587;28;20457;-41
2021/04/07 00:25:38;;;;;;;4.47;2.83;;;3.80;61.70;;;;;;5057901;28;20573;-41
2021/04/07 00:28:06;;;;;;;4.00;2.80;;;3.80;61.50;;;;;;5039027;28;20487;-40
2021/04/07 00:30:36;;;;;;;3.47;2.87;;;3.80;61.40;;;;;;5042719;28;20924;-40
2021/04/07 00:33:03;;;;;;;4.53;3.03;;;3.90;61.10;;;;;;5046812;28;20442;-40
2021/04/07 00:35:30;;;;;;;8.40;3.47;;;3.80;61.10;;;;;;5043537;28;20490;-41
2021/04/07 00:37:57;;;;;;;3.50;2.60;;;3.80;61.20;;;;;;5043208;28;21211;-40
2021/04/07 00:40:23;;;;;;;2.90;2.60;;;3.80;61.40;;;;;;5044112;28;20940;-40
2021/04/07 00:42:52;;;;;;;4.10;2.37;;;3.80;61.50;;;;;;5025454;28;20989;-40
2021/04/07 00:45:19;;;;;;;4.17;3.17;;;3.80;61.70;;;;;;5041805;28;20647;-40
2021/04/07 00:47:53;;;;;;;8.20;2.93;;;3.80;61.90;;;;;;5040227;28;20455;-40
2021/04/07 00:50:22;;;;;;;3.13;2.20;;;3.80;61.90;;;;;;5038183;28;20795;-41
2021/04/07 00:52:49;;;;;;;5.53;2.77;;;3.70;61.90;;;;;;5041314;28;20815;-41
2021/04/07 00:55:18;;;;;;;3.53;2.37;;;3.70;62.10;;;;;;5039808;28;20478;-40
2021/04/07 00:57:45;;;;;;;4.03;2.73;;;3.70;62.10;;;;;;5041562;28;20939;-40
2021/04/07 01:00:13;;;;;;;4.20;2.40;;;3.60;62.30;;;;;;5040126;28;20477;-40
2021/04/07 01:02:40;;;;;;;5.27;2.70;;;3.60;62.60;;;;;;5026390;28;20474;-40
2021/04/07 01:05:08;;;;;;;3.00;2.33;;;3.60;63.00;;;;;;5039098;28;20446;-40
2021/04/07 01:07:35;;;;;;;3.43;3.00;;;3.60;63.50;;;;;;5039477;28;20459;-41
2021/04/07 01:10:05;;;;;;;3.80;2.77;;;3.60;63.50;;;;;;5043065;28;20490;-40
2021/04/07 01:12:31;;;;;;;7.40;2.93;;;3.60;63.90;;;;;;5039353;28;20588;-40
2021/04/07 01:14:57;;;;;;;3.70;2.67;;;3.60;64.30;;;;;;5033578;28;20465;-41
2021/04/07 01:17:24;;;;;;;5.37;3.07;;;3.60;64.20;;;;;;5042632;28;20483;-40
2021/04/07 01:19:50;;;;;;;5.80;3.00;;;3.60;64.00;;;;;;5041095;28;20959;-40
2021/04/07 01:22:20;;;;;;;5.83;3.30;;;3.60;63.90;;;;;;5043018;28;20896;-40
2021/04/07 01:24:48;;;;;;;3.27;2.53;;;3.50;63.90;;;;;;5041755;28;20466;-40
2021/04/07 01:27:15;;;;;;;4.37;3.27;;;3.50;64.00;;;;;;5040995;28;20783;-41
2021/04/07 01:29:42;;;;;;;2.73;2.27;;;3.50;63.40;;;;;;5038589;28;20491;-40
2021/04/07 01:32:08;;;;;;;5.37;4.67;;;3.50;63.10;;;;;;5039329;28;20472;-40
2021/04/07 01:34:42;;;;;;;10.50;2.60;;;3.40;63.10;;;;;;5041619;28;20549;-40
2021/04/07 01:37:11;;;;;;;5.77;3.67;;;3.40;62.70;;;;;;5047963;28;20465;-40
2021/04/07 01:39:37;;;;;;;6.73;3.00;;;3.40;62.80;;;;;;5046673;28;20455;-41
2021/04/07 01:42:05;;;;;;;4.60;3.43;;;3.30;62.60;;;;;;5055016;28;20459;-40
2021/04/07 01:44:33;;;;;;;5.80;2.80;;;3.30;62.90;;;;;;5045641;28;20470;-41
2021/04/07 01:47:00;;;;;;;5.83;2.97;;;3.30;62.80;;;;;;5039745;28;20463;-40
2021/04/07 01:49:27;;;;;;;6.77;2.80;;;3.20;62.10;;;;;;5045278;28;20505;-40
2021/04/07 01:51:54;;;;;;;4.07;3.07;;;3.10;62.20;;;;;;5045375;28;20454;-40
2021/04/07 01:54:20;;;;;;;7.60;2.87;;;3.10;62.30;;;;;;5043331;28;20457;-40
2021/04/07 01:56:55;;;;;;;4.47;3.10;;;3.10;62.60;;;;;;5044511;28;20469;-40
2021/04/07 01:59:24;;;;;;;6.40;3.03;;;3.20;62.90;;;;;;5034021;28;20545;-41
2021/04/07 02:01:52;;;;;;;4.23;3.23;;;3.10;63.40;;;;;;5040092;28;20463;-40
2021/04/07 02:04:19;;;;;;;5.23;3.27;;;3.20;63.50;;;;;;5046900;28;20470;-40
2021/04/07 02:06:46;;;;;;;4.87;3.80;;;3.20;63.90;;;;;;5041985;28;20509;-40
2021/04/07 02:09:13;;;;;;;5.13;3.70;;;3.20;63.90;;;;;;5043679;28;20486;-40
2021/04/07 02:11:58;;;;;;;7.23;3.60;;;3.20;64.10;;;;;;5038577;28;20488;-40
2021/04/07 02:14:25;;;;;;;8.30;3.50;;;3.20;64.10;;;;;;5045744;28;20472;-40
2021/04/07 02:16:57;;;;;;;4.30;3.50;;;3.30;64.30;;;;;;5044343;28;20481;-41
2021/04/07 02:19:25;;;;;;;8.40;3.80;;;3.20;63.90;;;;;;5040465;28;20971;-40
2021/04/07 02:22:16;;;;;;;7.17;3.17;;;3.30;63.90;;;;;;5046867;28;20458;-40
2021/04/07 02:24:48;;;;;;;4.93;3.00;;;3.30;64.00;;;;;;5045493;28;20554;-40
2021/04/07 02:27:22;;;;;;;6.17;4.00;;;3.30;63.90;;;;;;5043013;28;20951;-40
2021/04/07 02:29:50;;;;;;;4.37;3.33;;;3.30;63.70;;;;;;5044834;28;20482;-40
2021/04/07 02:32:20;;;;;;;4.87;3.03;;;3.30;63.60;;;;;;5037460;28;20465;-43
2021/04/07 02:34:46;;;;;;;8.47;3.80;;;3.30;63.60;;;;;;5039498;28;20558;-43
2021/04/07 02:37:15;;;;;;;7.80;3.53;;;3.30;63.40;;;;;;5042693;28;20850;-44
2021/04/07 02:39:43;;;;;;;5.57;2.90;;;3.30;63.50;;;;;;5040964;28;20462;-43
2021/04/07 02:42:10;;;;;;;5.83;3.50;;;3.30;63.30;;;;;;5045869;28;20457;-43
2021/04/07 02:44:38;;;;;;;4.53;3.20;;;3.30;63.20;;;;;;5042266;28;20474;-43
2021/04/07 02:47:05;;;;;;;6.43;3.27;;;3.40;63.10;;;;;;5044442;28;20458;-42
2021/04/07 02:49:32;;;;;;;4.50;3.27;;;3.30;63.10;;;;;;5045799;28;20490;-42
2021/04/07 02:51:58;;;;;;;5.20;3.70;;;3.30;63.40;;;;;;5040687;28;20551;-42
2021/04/07 02:54:25;;;;;;;6.23;3.47;;;3.30;63.50;;;;;;5044924;28;20443;-42
2021/04/07 02:56:52;;;;;;;8.03;3.80;;;3.20;63.80;;;;;;5040083;28;20454;-42
2021/04/07 02:59:18;;;;;;;4.67;2.97;;;3.20;63.90;;;;;;5042774;28;21084;-42
2021/04/07 03:01:44;;;;;;;6.20;3.23;;;3.20;63.90;;;;;;5042107;28;20458;-42
2021/04/07 03:04:13;;;;;;;8.37;3.00;;;3.20;63.80;;;;;;5046161;28;20867;-42
2021/04/07 03:06:40;;;;;;;5.60;2.73;;;3.20;63.50;;;;;;5042780;28;20458;-42
2021/04/07 03:09:07;;;;;;;4.17;2.87;;;3.20;63.60;;;;;;5038476;28;20493;-42
2021/04/07 03:11:34;;;;;;;5.07;2.90;;;3.10;63.60;;;;;;5039692;28;20452;-42
2021/04/07 03:14:04;;;;;;;4.93;3.03;;;3.20;63.90;;;;;;5040425;28;20467;-42
2021/04/07 03:16:32;;;;;;;7.93;2.80;;;3.20;64.00;;;;;;5040523;28;20905;-42
2021/04/07 03:18:59;;;;;;;4.83;2.67;;;3.20;64.00;;;;;;5040924;28;21097;-42
2021/04/07 03:21:26;;;;;;;4.83;2.70;;;3.30;63.90;;;;;;5045826;28;20445;-42
2021/04/07 03:23:52;;;;;;;6.07;3.83;;;3.30;64.00;;;;;;5040322;28;21059;-42
2021/04/07 03:26:19;;;;;;;5.33;2.77;;;3.30;64.10;;;;;;5047754;28;20443;-42
2021/04/07 03:28:46;;;;;;;6.50;2.77;;;3.30;64.00;;;;;;5042559;28;20620;-42
2021/04/07 03:31:12;;;;;;;4.30;2.90;;;3.40;64.00;;;;;;5042003;28;20450;-42
2021/04/07 03:33:38;;;;;;;3.23;2.93;;;3.40;63.90;;;;;;5045737;28;20462;-42
2021/04/07 03:36:06;;;;;;;4.17;2.33;;;3.40;63.90;;;;;;5035455;28;20487;-42
2021/04/07 03:38:33;;;;;;;3.33;2.37;;;3.40;63.80;;;;;;5041546;28;20462;-42
2021/04/07 03:41:00;;;;;;;5.80;3.30;;;3.50;63.80;;;;;;5036843;28;20455;-42
2021/04/07 03:43:26;;;;;;;7.50;2.20;;;3.50;63.70;;;;;;5040008;28;20834;-42
2021/04/07 03:45:55;;;;;;;4.47;2.10;;;3.50;63.80;;;;;;5043804;28;20450;-42
2021/04/07 03:48:23;;;;;;;3.10;1.93;;;3.50;63.70;;;;;;5039592;28;20486;-42
2021/04/07 03:50:50;;;;;;;2.97;2.00;;;3.50;63.40;;;;;;5040779;28;20545;-42
2021/04/07 03:53:18;;;;;;;3.33;1.50;;;3.50;63.40;;;;;;5041641;28;20466;-42
2021/04/07 03:55:46;;;;;;;2.33;1.70;;;3.50;63.30;;;;;;5039423;28;20520;-42
2021/04/07 03:58:12;;;;;;;5.87;1.63;;;3.60;62.90;;;;;;5038146;28;20849;-42
2021/04/07 04:00:39;;;;;;;6.10;2.10;;;3.60;63.00;;;;;;5038504;28;20463;-42
2021/04/07 04:03:07;;;;;;;4.40;1.60;;;3.50;63.00;;;;;;5044366;28;20971;-42
2021/04/07 04:05:37;;;;;;;4.83;1.70;;;3.50;63.20;;;;;;5039311;28;20446;-42
2021/04/07 04:08:05;;;;;;;3.67;2.10;;;3.60;62.70;;;;;;5040009;28;20845;-42
2021/04/07 04:10:32;;;;;;;4.83;1.83;;;3.60;62.70;;;;;;5042627;28;20442;-42
2021/04/07 04:12:59;;;;;;;5.47;2.07;;;3.60;62.80;;;;;;5036670;28;20952;-42
2021/04/07 04:15:25;;;;;;;3.27;1.37;;;3.50;62.30;;;;;;5041733;28;20487;-42
2021/04/07 04:17:52;;;;;;;2.40;1.57;;;3.50;62.30;;;;;;5040174;28;20470;-42
2021/04/07 04:20:19;;;;;;;8.90;1.60;;;3.60;62.20;;;;;;5039114;28;20803;-42
2021/04/07 04:22:46;;;;;;;3.07;2.40;;;3.50;62.20;;;;;;5056115;28;20498;-42
2021/04/07 04:25:22;;;;;;;1.60;1.30;;;3.50;62.10;;;;;;5046225;28;20510;-42
2021/04/07 04:27:49;;;;;;;4.90;1.63;;;3.50;62.20;;;;;;5037265;28;20459;-42
2021/04/07 04:30:18;;;;;;;6.30;1.90;;;3.50;62.30;;;;;;5041442;28;20505;-42
2021/04/07 04:32:44;;;;;;;5.80;1.70;;;3.50;62.30;;;;;;5039816;28;20455;-42
2021/04/07 04:35:12;;;;;;;3.50;2.20;;;3.50;62.20;;;;;;5043786;28;20483;-42
2021/04/07 04:37:39;;;;;;;3.03;1.60;;;3.50;62.40;;;;;;5036398;28;20455;-42
2021/04/07 04:40:07;;;;;;;7.00;2.07;;;3.50;62.50;;;;;;5040762;28;20491;-42
2021/04/07 04:42:34;;;;;;;5.70;2.10;;;;;;;;;;5037690;28;20474;-42
2021/04/07 04:45:00;;;;;;;7.40;2.70;;;3.50;62.10;;;;;;5034066;28;21175;-42
2021/04/07 04:47:27;;;;;;;3.87;2.43;;;3.40;62.00;;;;;;5046686;28;20840;-42
2021/04/07 04:49:53;;;;;;;1.93;1.73;;;3.50;61.80;;;;;;5042219;28;20998;-42
2021/04/07 04:52:20;;;;;;;6.83;1.60;;;3.50;61.80;;;;;;5040853;28;20946;-42
2021/04/07 04:54:47;;;;;;;3.00;2.10;;;3.50;61.70;;;;;;5043252;28;20855;-42
2021/04/07 04:57:13;;;;;;;3.97;1.67;;;3.50;61.40;;;;;;5038810;28;20454;-42
2021/04/07 04:59:40;;;;;;;3.90;1.60;;;3.40;61.90;;;;;;5043247;28;20466;-42
2021/04/07 05:02:06;;;;;;;3.27;1.70;;;3.40;62.30;;;;;;5039074;28;20864;-42
2021/04/07 05:04:33;;;;;;;6.27;1.93;;;3.40;62.20;;;;;;5040350;28;20490;-42
2021/04/07 05:07:02;;;;;;;3.10;1.80;;;3.40;62.40;;;;;;5042950;28;20459;-42
2021/04/07 05:09:29;;;;;;;6.43;2.27;;;3.40;62.20;;;;;;5038007;28;20474;-42
2021/04/07 05:11:55;;;;;;;6.13;1.70;;;3.40;62.30;;;;;;5044271;28;20458;-42
2021/04/07 05:14:24;;;;;;;5.20;2.20;;;3.40;62.20;;;;;;5043945;28;20576;-42
2021/04/07 05:16:51;;;;;;;5.83;2.07;;;3.50;62.20;;;;;;5038205;28;20851;-42
2021/04/07 05:19:18;;;;;;;2.30;1.70;;;3.50;61.90;;;;;;5048417;28;20527;-42
2021/04/07 05:21:45;;;;;;;3.67;1.53;;;3.50;61.60;;;;;;5042259;28;20517;-42
2021/04/07 05:24:11;;;;;;;2.27;2.10;;;3.50;61.90;;;;;;5042483;28;20459;-42
2021/04/07 05:26:42;;;;;;;4.10;1.93;;;3.50;61.40;;;;;;5045380;28;20466;-42
2021/04/07 05:29:08;;;;;;;7.23;2.13;;;3.50;61.20;;;;;;5046636;28;20478;-42
2021/04/07 05:31:35;;;;;;;3.77;2.10;;;3.50;61.30;;;;;;5042188;28;20459;-42
2021/04/07 05:34:01;;;;;;;4.47;1.90;;;3.40;61.20;;;;;;5043019;28;20459;-42
2021/04/07 05:36:27;;;;;;;2.67;1.80;;;3.40;61.40;;;;;;5046870;28;20454;-42
2021/04/07 05:38:54;;;;;;;1.70;1.57;;;3.30;61.50;;;;;;5042334;28;20485;-42
2021/04/07 05:41:20;;;;;;;3.47;1.70;;;3.30;61.60;;;;;;5039547;28;20462;-42
2021/04/07 05:43:50;;;;;;;3.37;1.97;;;3.30;61.70;;;;;;5058625;28;20852;-42
2021/04/07 05:46:16;;;;;;;3.37;1.63;;;3.30;61.60;;;;;;5045329;28;20464;-42
2021/04/07 05:48:43;;;;;;;3.03;2.60;;;3.30;61.70;;;;;;5049315;28;20498;-42
2021/04/07 05:51:10;;;;;;;2.63;2.17;;;3.30;61.60;;;;;;5044589;28;20456;-42
2021/04/07 05:53:37;;;;;;;5.30;1.60;;;3.30;61.50;;;;;;5044154;28;20463;-42
2021/04/07 05:56:23;;;;;;;3.00;1.53;;;3.30;61.60;;;;;;5043617;28;20466;-42
2021/04/07 05:58:50;;;;;;;2.50;1.50;;;3.40;61.80;;;;;;5041598;28;20459;-42
2021/04/07 06:01:16;;;;;;;3.23;1.77;;;3.40;61.50;;;;;;5046421;28;20461;-42
2021/04/07 06:03:42;;;;;;;4.57;2.17;;;3.40;61.50;;;;;;5042002;28;20901;-42
2021/04/07 06:06:10;;;;;;;9.50;2.20;;;3.40;61.50;;;;;;5041805;28;20981;-42
2021/04/07 06:08:39;;;;;;;3.40;1.73;;;3.40;61.70;;;;;;5044079;28;20585;-42
2021/04/07 06:11:06;;;;;;;2.03;1.83;;;3.40;61.50;;;;;;5042358;28;20564;-42
2021/04/07 06:13:32;;;;;;;2.10;1.70;;;3.40;61.70;;;;;;5042281;28;21314;-42
2021/04/07 06:16:01;;;;;;;2.03;1.53;;;3.40;61.50;;;;;;5056235;28;20479;-42
2021/04/07 06:18:27;;;;;;;4.53;1.93;;;3.50;62.00;;;;;;5037843;28;20804;-42
2021/04/07 06:20:56;;;;;;;4.30;1.67;;;3.50;62.30;;;;;;5040298;28;20458;-42
2021/04/07 06:23:22;;;;;;;3.27;1.60;;;3.50;62.30;;;;;;5041874;28;20458;-42
2021/04/07 06:25:48;;;;;;;4.10;1.50;;;3.50;62.30;;;;;;5041974;28;20451;-42
2021/04/07 06:28:16;;;;;;;2.00;1.20;;;3.60;62.70;;;;;;5041988;28;20955;-42
2021/04/07 06:30:46;;;;;;;2.83;1.93;;;3.60;63.10;;;;;;5042454;28;20837;-42
2021/04/07 06:33:24;;;;;;;2.57;1.83;;;3.70;63.40;;;;;;5041501;28;20466;-42
2021/04/07 06:35:59;;;;;;;3.40;2.43;;;3.70;63.30;;;;;;5038996;28;20463;-42
2021/04/07 06:38:27;;;;;;;9.20;1.90;;;3.70;63.50;;;;;;5042313;28;20458;-42
2021/04/07 06:40:54;;;;;;;3.57;2.33;;;3.80;63.30;;;;;;5038644;28;20470;-42
2021/04/07 06:43:26;;;;;;;5.10;2.30;;;3.80;62.70;;;;;;5044118;28;20482;-42
2021/04/07 06:45:53;;;;;;;4.30;2.27;;;3.80;63.00;;;;;;5039789;28;20545;-42
2021/04/07 06:48:20;;;;;;;3.37;2.30;;;3.80;63.10;;;;;;5042133;28;20465;-42
2021/04/07 06:50:48;;;;;;;1.93;1.73;;;3.80;63.20;;;;;;5041017;28;20451;-42
2021/04/07 06:53:16;;;;;;;3.10;1.90;;;3.90;63.30;;;;;;5039122;28;20469;-42
2021/04/07 06:55:43;;;;;;;5.07;2.40;;;3.80;63.30;;;;;;5042844;28;20459;-42
2021/04/07 06:58:10;;;;;;;3.90;2.03;;;3.90;63.10;;;;;;5040992;28;20521;-42
2021/04/07 07:00:39;;;;;;;4.27;2.80;;;3.90;62.90;;;;;;5043363;28;20470;-42
2021/04/07 07:03:12;;;;;;;4.13;2.20;;;3.90;62.80;;;;;;5025581;28;595507;-42
2021/04/07 07:05:41;;;;;;;3.47;1.60;;;3.90;63.10;;;;;;5041373;28;20263;-42
2021/04/07 07:08:14;;;;;;;7.87;2.10;;;3.90;64.40;;;;;;5044670;28;20482;-42
2021/04/07 07:10:45;;;;;;;2.50;2.23;;;3.90;65.10;;;;;;5041929;28;20495;-42
2021/04/07 07:13:23;;;;;;;3.73;2.40;;;3.90;65.60;;;;;;5037757;28;21050;-42
2021/04/07 07:15:50;;;;;;;2.70;2.50;;;3.90;65.90;;;;;;5039096;28;20986;-42
2021/04/07 07:18:25;;;;;;;4.37;2.43;;;3.90;65.90;;;;;;5034626;28;20546;-42
2021/04/07 07:20:52;;;;;;;6.83;2.27;;;4.00;65.90;;;;;;5041588;28;20490;-42
2021/04/07 07:23:32;;;;;;;3.17;2.37;;;4.00;66.20;;;;;;5039616;28;20480;-42
2021/04/07 07:26:09;;;;;;;3.20;2.33;;;4.00;65.10;;;;;;5043192;28;20463;-42
2021/04/07 07:28:50;;;;;;;4.97;3.37;;;4.00;65.20;;;;;;5044205;28;20461;-42
2021/04/07 07:31:22;;;;;;;7.80;3.10;;;4.10;64.40;;;;;;5042125;28;20471;-42
2021/04/07 07:33:48;;;;;;;3.10;2.00;;;4.10;64.80;;;;;;5040598;28;20514;-42
2021/04/07 07:36:15;;;;;;;5.37;2.60;;;4.20;64.90;;;;;;5032760;28;20456;-42
2021/04/07 07:38:53;;;;;;;3.53;2.33;;;4.30;64.30;;;;;;5040541;28;20456;-42
2021/04/07 07:41:22;;;;;;;5.87;2.97;;;4.40;64.70;;;;;;5043040;28;20876;-42
2021/04/07 07:43:49;;;;;;;8.63;2.73;;;4.70;63.80;;;;;;5052340;28;20466;-42
2021/04/07 07:46:22;;;;;;;3.97;2.10;;;4.80;62.40;;;;;;5040838;28;21133;-42
2021/04/07 07:48:49;;;;;;;4.90;2.97;;;5.00;61.00;;;;;;5037935;28;21003;-43
2021/04/07 07:51:24;;;;;;;3.07;2.23;;;5.10;60.30;;;;;;5041569;28;20442;-42
2021/04/07 07:53:52;;;;;;;2.37;1.87;;;5.10;60.70;;;;;;5035950;28;21058;-42
2021/04/07 07:56:34;;;;;;;2.50;2.30;;;5.20;60.90;;;;;;5038218;28;21026;-43
2021/04/07 07:59:00;;;;;;;2.40;2.20;;;5.30;60.80;;;;;;5038998;28;20473;-42
2021/04/07 08:01:43;;;;;;;2.80;1.77;;;5.40;61.50;;;;;;5035309;28;20470;-42
2021/04/07 08:04:10;;;;;;;3.07;1.90;;;5.40;61.60;;;;;;5037245;28;20460;-43
2021/04/07 08:06:36;;;;;;;8.07;1.70;;;5.50;61.20;;;;;;5037242;28;20498;-42
2021/04/07 08:09:04;;;;;;;2.90;1.63;;;5.50;61.40;;;;;;5033557;28;20510;-42
2021/04/07 08:11:31;;;;;;;2.03;1.63;;;5.60;60.50;;;;;;5039451;28;20489;-42
2021/04/07 08:13:59;;;;;;;4.80;2.53;;;5.60;60.40;;;;;;5039209;28;20541;-42
2021/04/07 08:16:28;;;;;;;4.33;2.33;;;5.70;60.00;;;;;;5041620;28;20580;-42
2021/04/07 08:18:55;;;;;;;3.47;2.20;;;5.70;60.40;;;;;;5041070;28;20542;-42
2021/04/07 08:21:22;;;;;;;2.10;1.77;;;5.70;60.30;;;;;;5038026;28;20467;-42
2021/04/07 08:24:01;;;;;;;5.23;2.23;;;5.70;59.60;;;;;;5033844;28;20465;-42
2021/04/07 08:26:29;;;;;;;5.77;2.37;;;5.70;60.60;;;;;;5045458;28;20465;-42
2021/04/07 08:28:56;;;;;;;3.70;2.27;;;5.80;59.60;;;;;;5043950;28;21101;-42
2021/04/07 08:31:26;;;;;;;4.50;1.90;;;5.80;59.20;;;;;;5030929;28;20972;-42
2021/04/07 08:33:55;;;;;;;1.80;1.70;;;5.80;59.50;;;;;;5033375;28;21542;-42
2021/04/07 08:36:25;;;;;;;5.47;2.20;;;5.70;59.50;;;;;;5037594;28;20464;-42
2021/04/07 08:39:13;;;;;;;3.57;2.20;;;5.70;59.40;;;;;;5034826;28;20464;-42
2021/04/07 08:41:43;;;;;;;2.30;2.10;;;5.70;59.40;;;;;;5040238;28;20486;-42
2021/04/07 08:44:11;;;;;;;2.60;2.13;;;5.70;59.30;;;;;;5036813;28;20959;-43
2021/04/07 08:46:42;;;;;;;2.90;2.20;;;5.70;58.60;;;;;;5019446;28;20475;-42
2021/04/07 08:49:29;;;;;;;6.27;2.60;;;5.70;58.00;;;;;;5034335;28;20830;-42
2021/04/07 08:51:55;;;;;;;4.77;1.93;;;5.70;58.10;;;;;;5039221;28;20454;-42
2021/04/07 08:54:21;;;;;;;7.07;2.77;;;5.60;58.80;;;;;;5043209;28;20943;-42
2021/04/07 08:56:55;;;;;;;4.60;1.73;;;5.70;59.10;;;;;;5036449;28;20496;-42
2021/04/07 08:59:24;;;;;;;4.40;1.83;;;5.80;58.40;;;;;;5034788;28;21096;-42
2021/04/07 09:02:06;;;;;;;2.60;2.00;;;5.80;57.70;;;;;;5039369;28;20466;-42
2021/04/07 09:04:35;;;;;;;4.87;2.20;;;5.90;56.60;;;;;;5037759;28;20458;-42
2021/04/07 09:07:02;;;;;;;6.80;2.83;;;5.90;56.90;;;;;;5034775;28;21086;-42
2021/04/07 09:09:36;;;;;;;4.63;3.53;;;5.90;57.20;;;;;;5037763;28;20566;-42
2021/04/07 09:12:04;;;;;;;5.60;2.33;;;6.00;55.70;;;;;;5043434;28;20519;-42
2021/04/07 09:14:34;;;;;;;3.13;2.00;;;6.00;55.50;;;;;;5045756;28;20455;-42
2021/04/07 09:17:04;;;;;;;5.57;2.23;;;6.10;55.60;;;;;;5044473;28;20471;-42
2021/04/07 09:19:34;;;;;;;4.87;1.97;;;6.20;55.60;;;;;;5042323;28;20841;-42
2021/04/07 09:22:05;;;;;;;5.60;2.20;;;6.20;54.60;;;;;;5039133;28;20502;-42
2021/04/07 09:24:39;;;;;;;4.30;1.97;;;6.20;55.10;;;;;;5040941;28;20454;-42
2021/04/07 09:27:05;;;;;;;4.13;1.70;;;6.20;55.40;;;;;;5045580;28;20644;-43
2021/04/07 09:29:38;;;;;;;4.10;2.33;;;6.20;55.70;;;;;;5045163;28;20498;-43
2021/04/07 09:32:17;;;;;;;5.63;2.17;;;6.10;56.20;;;;;;5044644;28;20841;-44
2021/04/07 09:34:44;;;;;;;3.60;1.80;;;6.10;55.90;;;;;;5040329;28;20549;-42
2021/04/07 09:37:14;;;;;;;4.20;2.17;;;6.10;55.80;;;;;;5041759;28;20451;-42
2021/04/07 09:39:41;;;;;;;5.03;1.97;;;6.10;56.70;;;;;;5043326;28;20546;-42
2021/04/07 09:42:08;;;;;;;5.40;2.30;;;6.20;56.30;;;;;;5046919;28;20681;-42
2021/04/07 09:44:35;;;;;;;8.40;2.23;;;6.20;55.60;;;;;;5042886;28;20504;-42
2021/04/07 09:47:05;;;;;;;3.53;2.63;;;6.30;55.10;;;;;;5028793;28;20493;-42
2021/04/07 09:49:33;;;;;;;2.83;1.97;;;6.40;55.10;;;;;;5039297;28;20515;-42
2021/04/07 09:51:59;;;;;;;3.27;2.30;;;6.50;55.10;;;;;;5043887;28;20459;-42
2021/04/07 09:54:30;;;;;;;4.83;2.50;;;6.50;54.40;;;;;;5043461;28;20438;-42
2021/04/07 09:57:02;;;;;;;4.13;2.40;;;6.60;54.30;;;;;;5043921;28;20496;-42
2021/04/07 09:59:38;;;;;;;9.27;2.20;;;6.60;54.90;;;;;;5046858;28;20447;-42
2021/04/07 10:02:08;;;;;;;5.30;2.00;;;6.70;55.40;;;;;;5047498;28;20459;-42
2021/04/07 10:04:40;;;;;;;4.30;1.90;;;6.70;55.50;;;;;;5043978;28;20479;-42
2021/04/07 10:07:15;;;;;;;4.10;2.23;;;6.60;56.50;;;;;;5058566;28;20955;-42
2021/04/07 10:09:43;;;;;;;6.00;3.10;;;6.50;56.80;;;;;;5048241;28;20596;-42
2021/04/07 10:12:10;;;;;;;5.50;1.73;;;6.40;57.60;;;;;;5044608;28;20463;-42
2021/04/07 10:14:37;;;;;;;3.80;2.00;;;6.30;59.20;;;;;;5049975;28;20470;-42
2021/04/07 10:17:18;;;;;;;6.03;2.37;;;6.20;60.20;;;;;;5061592;28;20575;-42
2021/04/07 10:19:45;;;;;;;3.23;1.80;;;6.10;60.00;;;;;;5044693;28;20911;-42
2021/04/07 10:22:19;;;;;;;4.93;2.23;;;6.00;60.90;;;;;;5037779;28;20462;-42
2021/04/07 10:24:47;;;;;;;2.73;1.90;;;6.00;60.60;;;;;;5045491;28;20465;-42
2021/04/07 10:27:20;;;;;;;4.80;1.83;;;5.90;60.80;;;;;;5044280;28;20449;-42
2021/04/07 10:29:47;;;;;;;4.67;2.10;;;5.80;63.90;;;;;;5042643;28;20573;-42
2021/04/07 10:32:18;;;;;;;7.90;2.30;;;5.70;66.60;;;;;;5043905;28;20438;-42
2021/04/07 10:34:46;;;;;;;3.30;2.20;;;5.50;68.30;;;;;;5043394;28;20448;-42
2021/04/07 10:37:17;;;;;;;4.50;2.70;;;5.50;69.30;;;;;;5045545;28;20431;-42
2021/04/07 10:39:43;;;;;;;5.03;2.50;;;5.40;70.10;;;;;;5044632;28;20885;-42
2021/04/07 10:42:16;;;;;;;2.90;2.37;;;5.30;70.10;;;;;;5044211;28;20442;-42
2021/04/07 10:44:42;;;;;;;5.07;2.87;;;5.20;70.70;;;;;;5033166;28;20446;-42
2021/04/07 10:47:16;;;;;;;5.20;3.13;;;5.10;71.00;;;;;;5046405;28;20447;-42
2021/04/07 10:49:54;;;;;;;4.00;2.80;;;4.90;71.00;;;;;;5046651;28;20483;-42
2021/04/07 10:52:36;;;;;;;8.70;3.93;;;4.80;71.40;;;;;;5044340;28;20435;-42
2021/04/07 10:55:21;;;;;;;4.27;2.83;;;4.80;71.00;;;;;;5036553;28;21323;-42
2021/04/07 10:57:48;;;;;;;3.73;2.40;;;4.80;70.10;;;;;;5045393;28;20464;-42
2021/04/07 11:00:32;;;;;;;3.33;2.63;;;4.90;69.00;;;;;;5037706;28;20450;-42
2021/04/07 11:02:59;;;;;;;2.13;1.67;;;5.00;68.60;;;;;;5042885;28;21115;-42
2021/04/07 11:05:43;;;;;;;2.40;2.20;;;5.10;66.20;;;;;;5041483;28;20535;-42
2021/04/07 11:08:12;;;;;;;2.67;1.90;;;5.10;65.10;;;;;;5039671;28;20451;-42
2021/04/07 11:10:52;;;;;;;2.30;1.87;;;5.20;64.50;;;;;;5040115;28;20486;-42
2021/04/07 11:13:19;;;;;;;3.63;2.03;;;5.20;64.00;;;;;;5041530;28;21018;-42
2021/04/07 11:15:46;;;;;;;3.00;2.17;;;5.20;64.00;;;;;;5045079;28;20460;-42
2021/04/07 11:18:12;;;;;;;3.07;2.20;;;5.20;63.70;;;;;;5040388;28;20506;-42
2021/04/07 11:20:41;;;;;;;1.90;1.40;;;5.20;62.80;;;;;;5035525;28;20463;-42
2021/04/07 11:23:09;;;;;;;3.23;1.50;;;5.30;62.30;;;;;;5041112;28;20467;-42
2021/04/07 11:25:39;;;;;;;2.00;1.60;;;5.40;62.50;;;;;;5035753;28;20498;-42
2021/04/07 11:28:17;;;;;;;5.13;1.57;;;5.40;62.20;;;;;;5058180;28;20474;-42
2021/04/07 11:30:57;;;;;;;2.50;1.60;;;5.50;62.10;;;;;;5042449;28;20493;-42
2021/04/07 11:33:29;;;;;;;2.23;1.57;;;5.50;61.70;;;;;;5039730;28;20576;-42
2021/04/07 11:39:13;;;;;;;1.97;1.50;;;5.50;61.10;;;;;;5038068;28;20469;-42
2021/04/07 11:46:53;;;;;;;3.43;1.13;;;6.20;60.40;;;;;;5035715;28;20830;-42
2021/04/07 11:49:20;;;;;;;1.30;1.20;;;6.50;59.10;;;;;;5040672;28;20489;-42
2021/04/07 11:51:47;;;;;;;1.50;1.33;;;6.60;58.60;;;;;;5054053;28;20505;-42
2021/04/07 11:54:14;;;;;;;1.60;1.50;;;6.70;57.50;;;;;;5038904;28;20458;-42
2021/04/07 11:56:44;;;;;;;2.50;2.30;;;6.60;56.80;;;;;;5039564;28;20459;-42
2021/04/07 11:59:12;;;;;;;1.60;1.50;;;6.60;57.10;;;;;;5037258;28;20465;-43
2021/04/07 12:01:39;;;;;;;1.63;1.50;;;6.60;57.30;;;;;;5044502;28;20462;-42
2021/04/07 12:04:05;;;;;;;3.37;1.17;;;6.60;57.70;;;;;;5038634;28;20458;-42
2021/04/07 12:06:32;;;;;;;1.87;1.30;;;6.60;58.10;;;;;;5036583;28;20451;-42
2021/04/07 12:08:58;;;;;;;1.37;1.10;;;6.50;58.90;;;;;;5038723;28;20463;-43
2021/04/07 12:11:26;;;;;;;2.37;1.17;;;6.50;58.90;;;;;;5023925;28;20451;-42
2021/04/07 12:13:53;;;;;;;1.77;1.30;;;6.50;59.90;;;;;;5040251;28;20537;-42
2021/04/07 12:16:21;;;;;;;1.93;1.50;;;6.50;59.70;;;;;;5042730;28;20976;-42
2021/04/07 12:18:47;;;;;;;2.80;1.43;;;6.40;59.40;;;;;;5040515;28;20458;-42
2021/04/07 12:21:16;;;;;;;2.30;1.20;;;6.40;59.50;;;;;;5045470;28;20450;-42
2021/04/07 12:23:43;;;;;;;2.37;1.57;;;6.30;60.30;;;;;;5037219;28;20571;-43
2021/04/07 12:26:20;;;;;;;1.47;1.30;;;6.30;61.00;;;;;;5043003;28;20461;-42
2021/04/07 12:28:50;;;;;;;2.43;1.40;;;6.30;61.90;;;;;;5041309;28;20963;-42
2021/04/07 12:31:19;;;;;;;6.40;1.53;;;6.30;62.80;;;;;;5044416;28;20562;-42
2021/04/07 12:33:52;;;;;;;2.27;1.87;;;6.30;63.40;;;;;;5042137;28;20530;-42
2021/04/07 12:36:19;;;;;;;2.30;1.57;;;6.40;64.50;;;;;;5039286;28;20851;-42
2021/04/07 12:38:45;;;;;;;1.70;1.60;;;6.40;64.30;;;;;;5039519;28;20458;-42
2021/04/07 12:41:15;;;;;;;5.40;1.77;;;6.40;66.20;;;;;;5042692;28;20485;-42
2021/04/07 12:43:41;;;;;;;2.40;1.60;;;6.50;66.10;;;;;;5039579;28;20462;-42
2021/04/07 12:46:08;;;;;;;3.93;2.10;;;6.70;66.00;;;;;;5040406;28;20557;-42
2021/04/07 12:48:34;;;;;;;1.50;1.40;;;6.80;64.50;;;;;;5039712;28;20459;-42
2021/04/07 12:51:01;;;;;;;2.37;1.83;;;6.80;64.70;;;;;;5040165;28;20893;-42
2021/04/07 12:53:27;;;;;;;3.03;1.70;;;6.70;66.30;;;;;;5027254;28;20490;-42
2021/04/07 12:55:53;;;;;;;4.53;1.87;;;6.70;66.50;;;;;;5039081;28;20557;-42
2021/04/07 12:58:19;;;;;;;2.00;1.80;;;6.60;67.90;;;;;;5035805;28;20466;-42
2021/04/07 13:00:46;;;;;;;2.10;1.90;;;6.50;68.50;;;;;;5038473;28;20463;-42
2021/04/07 13:03:14;;;;;;;2.23;2.03;;;6.40;69.20;;;;;;5041922;28;20462;-42
2021/04/07 13:05:41;;;;;;;2.37;1.60;;;6.30;70.60;;;;;;5036568;28;20844;-42
2021/04/07 13:08:08;;;;;;;1.60;1.50;;;6.20;71.40;;;;;;5039049;28;20460;-42
2021/04/07 13:10:39;;;;;;;2.27;2.00;;;6.10;72.30;;;;;;5043085;28;20482;-42
2021/04/07 13:13:06;;;;;;;6.40;2.13;;;6.00;73.20;;;;;;5043050;28;20504;-42
2021/04/07 13:15:34;;;;;;;2.40;2.20;;;6.00;74.70;;;;;;5037849;28;20447;-42